Time;durP1;ratioP1;P1;durP2;ratioP2;P2;SDS_P1;SDS_P2;PMS_P1;PMS_P2;Temp;Humidity;BMP_temperature;BMP_pressure;BME280_temperature;BME280_humidity;BME280_pressure;Samples;Min_cycle;Max_cycle;Signal;HPM_P1;HPM_P2
2021/10/24 00:01:00;;;;;;;17.77;8.10;;;7.30;57.50;;;;;;5059097;28;20420;-33
2021/10/24 00:03:26;;;;;;;20.00;8.55;;;7.30;57.50;;;;;;5058669;28;20036;-34
2021/10/24 00:05:52;;;;;;;16.77;8.77;;;7.20;57.50;;;;;;5057649;28;20127;-33
2021/10/24 00:08:19;;;;;;;19.50;9.13;;;7.20;57.50;;;;;;5058352;28;20025;-40
2021/10/24 00:10:45;;;;;;;20.20;9.77;;;7.20;57.40;;;;;;5058973;28;20033;-38
2021/10/24 00:13:10;;;;;;;20.52;9.90;;;7.20;57.30;;;;;;5058194;28;20032;-41
2021/10/24 00:15:36;;;;;;;25.92;10.27;;;7.20;57.30;;;;;;5058026;28;20171;-39
2021/10/24 00:18:02;;;;;;;17.35;9.20;;;7.20;57.30;;;;;;5056937;28;20021;-34
2021/10/24 00:20:27;;;;;;;19.70;9.48;;;7.10;57.40;;;;;;5058627;28;20082;-32
2021/10/24 00:22:53;;;;;;;21.13;8.80;;;7.00;57.40;;;;;;5057967;28;20421;-40
2021/10/24 00:25:19;;;;;;;19.25;8.75;;;7.00;57.60;;;;;;5058406;28;20037;-33
2021/10/24 00:27:44;;;;;;;16.80;8.35;;;7.00;57.70;;;;;;5058186;28;20028;-38
2021/10/24 00:30:10;;;;;;;18.13;7.93;;;6.90;57.80;;;;;;5058454;28;20037;-33
2021/10/24 00:32:36;;;;;;;16.10;8.18;;;6.90;57.80;;;;;;5057785;28;20043;-33
2021/10/24 00:35:03;;;;;;;17.27;8.40;;;6.90;57.80;;;;;;5058084;28;20104;-33
2021/10/24 00:37:28;;;;;;;16.00;8.30;;;6.90;57.80;;;;;;5058105;28;20036;-38
2021/10/24 00:39:54;;;;;;;17.17;8.25;;;7.00;57.80;;;;;;5058329;28;20318;-33
2021/10/24 00:42:20;;;;;;;14.23;7.78;;;6.90;57.90;;;;;;5057569;28;20090;-38
2021/10/24 00:44:46;;;;;;;17.70;7.70;;;6.90;57.90;;;;;;5057992;28;20032;-33
2021/10/24 00:47:11;;;;;;;17.52;7.97;;;6.90;58.00;;;;;;5057596;28;20450;-34
2021/10/24 00:49:38;;;;;;;15.13;8.82;;;6.90;57.90;;;;;;5057965;28;20048;-35
2021/10/24 00:52:06;;;;;;;19.23;8.60;;;6.90;58.10;;;;;;5057288;28;20029;-40
2021/10/24 00:54:33;;;;;;;23.73;9.00;;;6.90;58.10;;;;;;5057490;28;20464;-38
2021/10/24 00:57:01;;;;;;;18.10;8.95;;;6.90;58.10;;;;;;5057666;28;20048;-34
2021/10/24 00:59:27;;;;;;;19.30;8.75;;;6.90;58.10;;;;;;5057763;28;20111;-34
2021/10/24 01:01:54;;;;;;;17.30;8.10;;;6.90;58.10;;;;;;5057308;28;20025;-39
2021/10/24 01:04:20;;;;;;;18.92;8.65;;;6.90;58.10;;;;;;5056262;28;20131;-39
2021/10/24 01:06:49;;;;;;;16.35;7.95;;;7.00;58.20;;;;;;5057310;28;20047;-39
2021/10/24 01:09:16;;;;;;;14.32;7.38;;;7.00;58.20;;;;;;5057540;28;20037;-34
2021/10/24 01:11:43;;;;;;;12.40;6.93;;;7.00;58.00;;;;;;5056030;28;20448;-34
2021/10/24 01:14:12;;;;;;;23.58;8.00;;;7.10;58.20;;;;;;5057522;28;20047;-39
2021/10/24 01:16:40;;;;;;;17.05;8.00;;;7.10;58.10;;;;;;5056855;28;20068;-39
2021/10/24 01:19:07;;;;;;;15.93;7.10;;;7.20;58.10;;;;;;5057338;28;20087;-34
2021/10/24 01:21:33;;;;;;;12.80;6.97;;;7.20;58.10;;;;;;5056885;28;20033;-39
2021/10/24 01:24:00;;;;;;;14.82;6.95;;;7.20;58.10;;;;;;5057473;28;20033;-40
2021/10/24 01:26:26;;;;;;;12.98;6.20;;;7.30;58.20;;;;;;5056894;28;20021;-39
2021/10/24 01:28:56;;;;;;;15.15;7.18;;;7.30;58.20;;;;;;5057206;28;20025;-39
2021/10/24 01:31:23;;;;;;;12.50;6.40;;;7.30;58.20;;;;;;5056662;28;20029;-34
2021/10/24 01:33:48;;;;;;;15.43;6.93;;;7.40;58.20;;;;;;5056884;28;20021;-39
2021/10/24 01:36:14;;;;;;;15.27;7.25;;;7.40;58.20;;;;;;5056531;28;20036;-34
2021/10/24 01:38:45;;;;;;;14.98;7.53;;;7.50;58.30;;;;;;5056645;28;20033;-34
2021/10/24 01:41:13;;;;;;;13.00;7.15;;;7.50;58.10;;;;;;5057110;28;20021;-34
2021/10/24 01:43:38;;;;;;;19.27;7.30;;;7.50;58.10;;;;;;5056481;28;20031;-34
2021/10/24 01:46:05;;;;;;;20.25;6.72;;;7.60;58.10;;;;;;5056613;28;20025;-36
2021/10/24 01:48:31;;;;;;;16.52;7.20;;;7.60;58.10;;;;;;5056662;28;20025;-38
2021/10/24 01:50:57;;;;;;;13.38;6.45;;;7.60;57.90;;;;;;5056690;28;20033;-38
2021/10/24 01:53:29;;;;;;;17.45;6.97;;;7.60;58.00;;;;;;5056277;28;20029;-40
2021/10/24 01:55:55;;;;;;;12.45;7.15;;;7.70;58.10;;;;;;5056142;28;20055;-33
2021/10/24 01:58:21;;;;;;;12.93;7.13;;;7.70;58.00;;;;;;5056267;28;20025;-32
2021/10/24 02:00:49;;;;;;;15.82;6.82;;;7.70;58.10;;;;;;5056831;28;20033;-33
2021/10/24 02:03:16;;;;;;;13.05;7.03;;;7.70;58.10;;;;;;5055927;28;20017;-38
2021/10/24 02:05:43;;;;;;;15.18;6.88;;;7.70;58.10;;;;;;5055121;28;20325;-39
2021/10/24 02:08:09;;;;;;;15.95;6.57;;;7.80;58.10;;;;;;5056024;28;20029;-33
2021/10/24 02:10:36;;;;;;;15.25;7.13;;;7.80;58.10;;;;;;5056593;28;20042;-34
2021/10/24 02:13:03;;;;;;;16.52;6.40;;;7.80;58.10;;;;;;5056290;28;20029;-34
2021/10/24 02:15:29;;;;;;;17.30;6.72;;;7.80;58.00;;;;;;5056107;28;20049;-34
2021/10/24 02:17:55;;;;;;;13.63;6.82;;;7.80;58.00;;;;;;5056141;28;20025;-38
2021/10/24 02:20:22;;;;;;;11.85;6.25;;;7.80;58.10;;;;;;5056368;28;20051;-34
2021/10/24 02:22:47;;;;;;;12.05;6.53;;;7.80;58.10;;;;;;5056035;28;20032;-34
2021/10/24 02:25:14;;;;;;;11.02;6.22;;;7.80;58.20;;;;;;5055959;28;20032;-33
2021/10/24 02:27:40;;;;;;;15.15;7.10;;;7.90;58.30;;;;;;5056061;28;20037;-38
2021/10/24 02:30:08;;;;;;;12.43;6.55;;;7.90;58.30;;;;;;5056273;28;20043;-34
2021/10/24 02:32:33;;;;;;;15.82;7.22;;;7.90;58.30;;;;;;5055885;28;20032;-38
2021/10/24 02:34:59;;;;;;;20.40;6.95;;;7.90;58.30;;;;;;5055872;28;20321;-38
2021/10/24 02:37:25;;;;;;;12.70;6.35;;;7.90;58.30;;;;;;5055487;28;20118;-34
2021/10/24 02:39:51;;;;;;;13.02;7.03;;;7.90;58.30;;;;;;5055948;28;20040;-38
2021/10/24 02:42:17;;;;;;;13.88;6.53;;;7.90;58.30;;;;;;5055804;28;20151;-39
2021/10/24 02:44:42;;;;;;;13.73;6.80;;;7.90;58.30;;;;;;5055832;28;20035;-39
2021/10/24 02:47:08;;;;;;;11.70;6.43;;;8.00;58.40;;;;;;5055826;28;20480;-34
2021/10/24 02:49:34;;;;;;;11.45;7.20;;;8.00;58.40;;;;;;5055781;28;20060;-33
2021/10/24 02:52:00;;;;;;;11.45;6.22;;;8.00;58.50;;;;;;5055563;28;20443;-34
2021/10/24 02:54:26;;;;;;;16.90;6.95;;;8.00;58.40;;;;;;5055202;28;20049;-34
2021/10/24 02:56:52;;;;;;;13.25;6.68;;;8.00;58.50;;;;;;5055297;28;20020;-35
2021/10/24 02:59:18;;;;;;;14.43;6.50;;;8.00;58.50;;;;;;5055848;28;20409;-39
2021/10/24 03:01:44;;;;;;;15.43;7.53;;;8.00;58.60;;;;;;5055442;28;20112;-34
2021/10/24 03:04:11;;;;;;;14.63;6.80;;;7.90;58.60;;;;;;5055536;28;20112;-39
2021/10/24 03:06:37;;;;;;;15.27;7.40;;;7.90;58.60;;;;;;5055552;28;20337;-38
2021/10/24 03:09:03;;;;;;;14.88;6.93;;;7.90;58.70;;;;;;5055677;28;20044;-38
2021/10/24 03:11:29;;;;;;;15.77;6.88;;;7.90;58.80;;;;;;5055128;28;20025;-40
2021/10/24 03:13:55;;;;;;;16.55;7.13;;;7.90;58.90;;;;;;5055739;28;20044;-39
2021/10/24 03:16:21;;;;;;;13.63;6.65;;;7.90;58.90;;;;;;5056587;28;20036;-34
2021/10/24 03:18:46;;;;;;;15.15;6.60;;;7.90;59.00;;;;;;5059355;28;20409;-39
2021/10/24 03:21:12;;;;;;;12.88;6.40;;;7.90;59.00;;;;;;5059322;28;20060;-34
2021/10/24 03:23:38;;;;;;;18.25;7.07;;;7.80;59.10;;;;;;5059480;28;20021;-33
2021/10/24 03:26:03;;;;;;;14.55;6.75;;;7.90;59.20;;;;;;5059288;28;20413;-38
2021/10/24 03:28:29;;;;;;;15.55;7.03;;;7.90;59.20;;;;;;5059089;28;20124;-39
2021/10/24 03:30:56;;;;;;;15.85;7.28;;;7.80;59.30;;;;;;5059822;28;20041;-34
2021/10/24 03:33:22;;;;;;;12.93;6.80;;;7.90;59.40;;;;;;5058806;28;20112;-34
2021/10/24 03:35:47;;;;;;;16.67;7.43;;;7.80;59.40;;;;;;5059347;28;20104;-39
2021/10/24 03:38:13;;;;;;;13.77;6.75;;;7.80;59.50;;;;;;5059218;28;20029;-39
2021/10/24 03:40:39;;;;;;;14.50;7.05;;;7.90;59.50;;;;;;5058980;28;20033;-39
2021/10/24 03:43:04;;;;;;;12.32;6.95;;;7.90;59.60;;;;;;5057624;28;20360;-33
2021/10/24 03:45:30;;;;;;;14.55;7.15;;;7.90;59.60;;;;;;5059252;28;20037;-34
2021/10/24 03:47:56;;;;;;;17.00;7.43;;;7.80;59.60;;;;;;5058906;28;20029;-34
2021/10/24 03:50:22;;;;;;;15.55;6.78;;;7.80;59.60;;;;;;5059158;28;20036;-38
2021/10/24 03:52:48;;;;;;;18.55;6.80;;;7.80;59.70;;;;;;5057896;28;20029;-39
2021/10/24 03:55:14;;;;;;;15.13;6.63;;;7.90;59.80;;;;;;5058078;28;20119;-38
2021/10/24 03:57:41;;;;;;;13.35;7.28;;;7.90;59.70;;;;;;5058747;28;20029;-39
2021/10/24 04:00:08;;;;;;;13.23;7.03;;;7.90;59.70;;;;;;5059075;28;20528;-33
2021/10/24 04:02:46;;;;;;;22.95;8.82;;;7.90;59.70;;;;;;5058514;28;20100;-33
2021/10/24 04:05:14;;;;;;;13.57;6.80;;;7.90;59.80;;;;;;5059052;28;20417;-33
2021/10/24 04:07:40;;;;;;;13.05;5.72;;;7.90;59.80;;;;;;5058427;28;20376;-33
2021/10/24 04:10:06;;;;;;;15.80;6.97;;;7.90;59.80;;;;;;5057624;28;20044;-39
2021/10/24 04:12:32;;;;;;;20.85;7.53;;;7.90;59.90;;;;;;5057121;28;20032;-39
2021/10/24 04:14:57;;;;;;;14.82;7.43;;;7.90;60.00;;;;;;5058617;28;20468;-34
2021/10/24 04:17:23;;;;;;;16.92;7.13;;;7.90;60.00;;;;;;5058374;28;20048;-34
2021/10/24 04:19:49;;;;;;;16.95;7.38;;;7.90;60.10;;;;;;5058382;28;20029;-39
2021/10/24 04:22:15;;;;;;;17.92;7.68;;;7.90;60.20;;;;;;5058155;28;20051;-35
2021/10/24 04:24:40;;;;;;;17.98;6.97;;;7.90;60.30;;;;;;5058086;28;20331;-34
2021/10/24 04:27:06;;;;;;;14.02;7.22;;;7.90;60.30;;;;;;5057461;28;20031;-35
2021/10/24 04:29:31;;;;;;;15.30;7.18;;;7.90;60.40;;;;;;5058385;28;20076;-39
2021/10/24 04:31:57;;;;;;;28.25;8.82;;;7.90;60.50;;;;;;5057863;28;20075;-38
2021/10/24 04:34:23;;;;;;;16.58;7.07;;;7.90;60.60;;;;;;5058134;28;20043;-38
2021/10/24 04:36:48;;;;;;;16.35;6.68;;;7.90;60.60;;;;;;5057686;28;20025;-40
2021/10/24 04:39:14;;;;;;;13.93;6.72;;;7.90;60.70;;;;;;5058292;28;20417;-39
2021/10/24 04:41:40;;;;;;;14.90;7.45;;;7.90;60.70;;;;;;5058186;28;20436;-34
2021/10/24 04:44:05;;;;;;;18.05;6.95;;;7.90;60.90;;;;;;5057788;28;20037;-34
2021/10/24 04:46:31;;;;;;;12.18;6.72;;;7.90;60.90;;;;;;5057410;28;20032;-40
2021/10/24 04:48:57;;;;;;;12.55;6.63;;;8.00;61.10;;;;;;5057782;28;20029;-40
2021/10/24 04:51:23;;;;;;;14.88;6.70;;;8.00;61.10;;;;;;5057855;28;20100;-39
2021/10/24 04:53:49;;;;;;;17.00;6.80;;;8.00;61.10;;;;;;5057186;28;20115;-33
2021/10/24 04:56:15;;;;;;;15.32;6.65;;;8.00;61.20;;;;;;5057183;28;20039;-33
2021/10/24 04:58:40;;;;;;;15.50;6.88;;;8.00;61.20;;;;;;5056316;28;20025;-33
2021/10/24 05:01:06;;;;;;;12.13;6.32;;;8.10;61.30;;;;;;5057493;28;20024;-34
2021/10/24 05:03:32;;;;;;;13.05;6.72;;;8.10;61.30;;;;;;5057214;28;20036;-38
2021/10/24 05:05:58;;;;;;;12.85;7.63;;;8.10;61.30;;;;;;5057836;28;20044;-38
2021/10/24 05:08:24;;;;;;;16.75;6.95;;;8.10;61.40;;;;;;5057365;28;20424;-35
2021/10/24 05:10:49;;;;;;;12.07;6.93;;;8.10;61.40;;;;;;5057720;28;20037;-34
2021/10/24 05:13:16;;;;;;;12.90;7.05;;;8.20;61.50;;;;;;5052751;28;20029;-34
2021/10/24 05:15:42;;;;;;;19.95;7.82;;;8.10;61.50;;;;;;5036387;28;20065;-38
2021/10/24 05:18:08;;;;;;;11.65;6.13;;;8.10;61.60;;;;;;5041321;28;20426;-34
2021/10/24 05:20:33;;;;;;;13.85;6.55;;;8.20;61.60;;;;;;5056180;28;20108;-39
2021/10/24 05:22:59;;;;;;;14.80;6.60;;;8.10;61.60;;;;;;5052623;28;20143;-35
2021/10/24 05:25:25;;;;;;;13.88;6.82;;;8.20;61.60;;;;;;5045579;28;20068;-34
2021/10/24 05:27:54;;;;;;;15.98;7.70;;;8.20;61.70;;;;;;5049038;28;20037;-35
2021/10/24 05:30:23;;;;;;;12.32;6.22;;;8.20;61.80;;;;;;5057100;28;20040;-39
2021/10/24 05:32:49;;;;;;;12.05;6.57;;;8.30;61.80;;;;;;5056653;28;20029;-34
2021/10/24 05:35:14;;;;;;;17.75;7.85;;;8.20;61.80;;;;;;5056997;28;20139;-33
2021/10/24 05:37:40;;;;;;;17.52;6.38;;;8.30;62.00;;;;;;5056186;28;20025;-35
2021/10/24 05:40:06;;;;;;;13.77;7.00;;;8.30;62.00;;;;;;5035995;28;20044;-38
2021/10/24 05:42:32;;;;;;;15.10;7.07;;;8.30;62.00;;;;;;5036665;28;20033;-38
2021/10/24 05:44:57;;;;;;;13.30;6.47;;;8.40;62.00;;;;;;5036854;28;20028;-34
2021/10/24 05:47:23;;;;;;;12.65;6.60;;;8.40;62.00;;;;;;5036382;28;20441;-35
2021/10/24 05:49:50;;;;;;;11.43;6.60;;;8.40;61.90;;;;;;5036522;28;20086;-33
2021/10/24 05:52:17;;;;;;;15.35;6.43;;;8.40;61.90;;;;;;5036271;28;20033;-33
2021/10/24 05:54:43;;;;;;;11.43;6.28;;;8.50;62.10;;;;;;5036107;28;20111;-34
2021/10/24 05:57:09;;;;;;;15.90;6.47;;;8.50;62.00;;;;;;5036405;28;20109;-38
2021/10/24 05:59:35;;;;;;;18.05;7.07;;;8.50;62.00;;;;;;5036792;28;20426;-33
2021/10/24 06:02:01;;;;;;;14.68;6.20;;;8.50;62.00;;;;;;5036405;28;20049;-35
2021/10/24 06:04:26;;;;;;;15.18;6.57;;;8.60;62.10;;;;;;5036297;28;20041;-33
2021/10/24 06:06:52;;;;;;;11.63;6.13;;;8.50;62.10;;;;;;5035993;28;20029;-34
2021/10/24 06:09:27;;;;;;;19.23;7.00;;;8.60;62.10;;;;;;5036054;28;20033;-39
2021/10/24 06:11:59;;;;;;;18.65;7.00;;;8.60;62.10;;;;;;5036095;28;20041;-33
2021/10/24 06:14:25;;;;;;;18.15;6.82;;;8.70;62.20;;;;;;5036300;28;20038;-39
2021/10/24 06:16:51;;;;;;;14.50;6.65;;;8.70;62.20;;;;;;5035749;28;20029;-34
2021/10/24 06:19:17;;;;;;;16.70;7.65;;;8.70;62.20;;;;;;5036192;28;20036;-33
2021/10/24 06:21:43;;;;;;;12.30;6.72;;;8.80;62.30;;;;;;5035810;28;20021;-34
2021/10/24 06:24:09;;;;;;;19.65;7.28;;;8.80;62.30;;;;;;5035863;28;20057;-33
2021/10/24 06:26:34;;;;;;;13.07;6.68;;;8.90;62.30;;;;;;5035651;28;20104;-33
2021/10/24 06:29:00;;;;;;;12.20;6.35;;;8.90;62.30;;;;;;5036150;28;20030;-33
2021/10/24 06:31:26;;;;;;;15.38;6.35;;;9.00;62.20;;;;;;5035360;28;20029;-40
2021/10/24 06:33:51;;;;;;;10.15;5.97;;;9.00;62.20;;;;;;5035980;28;20029;-40
2021/10/24 06:36:17;;;;;;;13.57;6.80;;;9.00;62.20;;;;;;5035349;28;20033;-34
2021/10/24 06:38:43;;;;;;;10.07;5.80;;;9.00;62.30;;;;;;5035468;28;20025;-34
2021/10/24 06:41:09;;;;;;;12.13;6.63;;;9.10;62.30;;;;;;5035781;28;20048;-40
2021/10/24 06:43:35;;;;;;;12.07;6.10;;;9.10;62.30;;;;;;5035603;28;20429;-40
2021/10/24 06:46:01;;;;;;;16.23;6.45;;;9.20;62.30;;;;;;5035528;28;20116;-40
2021/10/24 06:48:27;;;;;;;18.77;7.20;;;9.20;62.20;;;;;;5035459;28;20101;-34
2021/10/24 06:50:53;;;;;;;14.80;6.45;;;9.30;62.20;;;;;;5035793;28;20425;-34
2021/10/24 06:53:18;;;;;;;14.45;6.93;;;9.30;62.20;;;;;;5034118;28;20029;-33
2021/10/24 06:55:44;;;;;;;16.80;7.22;;;9.30;62.10;;;;;;5035080;28;20071;-38
2021/10/24 06:58:10;;;;;;;15.95;6.15;;;9.40;62.10;;;;;;5035163;28;20055;-39
2021/10/24 07:00:36;;;;;;;9.55;6.05;;;9.40;62.10;;;;;;5035517;28;20038;-40
2021/10/24 07:03:01;;;;;;;14.35;6.80;;;9.40;62.10;;;;;;5035109;28;20444;-40
2021/10/24 07:05:27;;;;;;;13.98;7.50;;;9.50;62.20;;;;;;5035580;28;20035;-40
2021/10/24 07:07:53;;;;;;;17.15;6.93;;;9.50;62.10;;;;;;5035045;28;20026;-40
2021/10/24 07:10:20;;;;;;;16.90;7.38;;;9.60;62.10;;;;;;5035397;28;20037;-40
2021/10/24 07:12:56;;;;;;;14.80;6.80;;;9.60;62.30;;;;;;5034920;28;20114;-40
2021/10/24 07:15:22;;;;;;;11.98;6.38;;;9.70;62.10;;;;;;5035109;28;20042;-39
2021/10/24 07:17:48;;;;;;;11.25;6.45;;;9.80;61.90;;;;;;5034477;28;20075;-33
2021/10/24 07:20:15;;;;;;;13.57;6.47;;;9.80;61.80;;;;;;5035178;28;20187;-33
2021/10/24 07:22:41;;;;;;;19.35;7.70;;;9.80;61.70;;;;;;5035124;28;20022;-34
2021/10/24 07:25:07;;;;;;;13.52;7.05;;;9.90;61.70;;;;;;5035497;28;20095;-33
2021/10/24 07:27:32;;;;;;;18.48;7.57;;;9.90;61.70;;;;;;5035094;28;20038;-35
2021/10/24 07:29:58;;;;;;;14.27;6.78;;;9.90;61.50;;;;;;5035445;28;20076;-35
2021/10/24 07:32:24;;;;;;;15.70;7.43;;;10.00;61.50;;;;;;5045571;28;20436;-39
2021/10/24 07:34:50;;;;;;;14.38;6.57;;;10.10;61.50;;;;;;5054896;28;20037;-33
2021/10/24 07:37:15;;;;;;;18.20;7.57;;;10.10;61.40;;;;;;5053967;28;20018;-40
2021/10/24 07:39:42;;;;;;;13.98;7.43;;;10.10;61.30;;;;;;5055153;28;20455;-40
2021/10/24 07:42:09;;;;;;;17.40;8.65;;;10.10;61.30;;;;;;5054464;28;20028;-33
2021/10/24 07:44:35;;;;;;;16.98;7.90;;;10.10;61.40;;;;;;5054741;28;20040;-33
2021/10/24 07:47:00;;;;;;;19.10;7.80;;;10.10;61.50;;;;;;5054327;28;20036;-40
2021/10/24 07:49:27;;;;;;;16.73;7.95;;;10.10;61.40;;;;;;5054267;28;20418;-40
2021/10/24 07:51:53;;;;;;;13.70;7.35;;;10.10;61.50;;;;;;5054165;28;20508;-40
2021/10/24 07:54:19;;;;;;;18.90;7.60;;;10.10;62.10;;;;;;5054307;28;20045;-41
2021/10/24 07:56:44;;;;;;;18.60;7.65;;;10.10;61.60;;;;;;5053896;28;20051;-39
2021/10/24 07:59:11;;;;;;;16.77;7.63;;;10.20;61.50;;;;;;5054927;28;20025;-41
2021/10/24 08:01:37;;;;;;;13.00;7.70;;;10.20;61.50;;;;;;5054087;28;20059;-40
2021/10/24 08:04:05;;;;;;;19.50;9.13;;;10.20;61.40;;;;;;5058287;28;20036;-34
2021/10/24 08:06:32;;;;;;;15.98;7.65;;;10.20;61.50;;;;;;5057764;28;20024;-41
2021/10/24 08:08:59;;;;;;;18.08;7.95;;;10.20;61.50;;;;;;5058431;28;20037;-40
2021/10/24 08:11:25;;;;;;;13.00;7.25;;;10.20;61.50;;;;;;5057891;28;20333;-40
2021/10/24 08:13:51;;;;;;;19.58;7.75;;;10.20;61.40;;;;;;5058069;28;20040;-33
2021/10/24 08:16:17;;;;;;;18.25;7.38;;;10.30;61.50;;;;;;5053723;28;20497;-35
2021/10/24 08:18:42;;;;;;;17.17;8.32;;;10.30;61.40;;;;;;5056149;28;20025;-34
2021/10/24 08:21:08;;;;;;;12.25;6.88;;;10.30;61.40;;;;;;5058256;28;20104;-40
2021/10/24 08:23:34;;;;;;;13.55;6.90;;;10.30;61.30;;;;;;5057385;28;20032;-40
2021/10/24 08:25:59;;;;;;;13.70;7.40;;;10.30;61.30;;;;;;5058468;28;20029;-35
2021/10/24 08:28:25;;;;;;;15.95;7.93;;;10.40;61.40;;;;;;5058079;28;20031;-36
2021/10/24 08:30:52;;;;;;;18.38;8.13;;;10.40;62.00;;;;;;5058285;28;20433;-41
2021/10/24 08:33:18;;;;;;;15.05;6.80;;;10.50;61.60;;;;;;5057560;28;20025;-39
2021/10/24 08:35:44;;;;;;;14.65;6.90;;;10.50;61.40;;;;;;5057905;28;20044;-40
2021/10/24 08:38:11;;;;;;;13.82;7.38;;;10.60;61.20;;;;;;5057295;28;20317;-41
2021/10/24 08:40:43;;;;;;;16.75;8.20;;;10.60;60.90;;;;;;5057468;28;20029;-33
2021/10/24 08:43:18;;;;;;;19.27;8.23;;;10.60;60.80;;;;;;5057048;28;20040;-40
2021/10/24 08:45:46;;;;;;;15.55;7.90;;;10.60;60.80;;;;;;5058269;28;20056;-39
2021/10/24 08:48:13;;;;;;;13.23;7.00;;;10.70;60.80;;;;;;5051127;28;20032;-33
2021/10/24 08:50:39;;;;;;;20.42;8.23;;;10.70;60.70;;;;;;5049568;28;20435;-34
2021/10/24 08:53:11;;;;;;;15.65;8.07;;;10.70;60.60;;;;;;5037358;28;20021;-33
2021/10/24 08:55:39;;;;;;;14.52;7.70;;;10.70;60.70;;;;;;5037221;28;20057;-38
2021/10/24 08:58:05;;;;;;;21.17;8.02;;;10.70;60.70;;;;;;5037589;28;20091;-40
2021/10/24 09:00:31;;;;;;;20.52;7.53;;;10.70;60.70;;;;;;5037706;28;20433;-40
2021/10/24 09:03:09;;;;;;;13.55;7.13;;;10.80;60.70;;;;;;5036981;28;20026;-41
2021/10/24 09:05:52;;;;;;;17.27;7.70;;;10.80;60.70;;;;;;5035997;28;20109;-40
2021/10/24 09:08:22;;;;;;;19.08;8.38;;;10.80;60.80;;;;;;5037236;28;20033;-35
2021/10/24 09:10:54;;;;;;;15.48;7.10;;;10.80;60.70;;;;;;5037705;28;20359;-34
2021/10/24 09:13:28;;;;;;;21.95;8.02;;;10.80;60.60;;;;;;5036968;28;20037;-34
2021/10/24 09:15:56;;;;;;;11.07;6.75;;;10.80;60.60;;;;;;5037504;28;20365;-39
2021/10/24 09:18:45;;;;;;;14.88;7.28;;;10.80;60.60;;;;;;5037006;28;20029;-34
2021/10/24 09:21:18;;;;;;;14.45;7.97;;;10.80;60.40;;;;;;5037077;28;20112;-34
2021/10/24 09:23:50;;;;;;;11.25;7.05;;;10.90;60.40;;;;;;5037327;28;20026;-34
2021/10/24 09:26:30;;;;;;;12.95;7.47;;;11.00;60.40;;;;;;5036839;28;20033;-38
2021/10/24 09:29:08;;;;;;;15.82;7.47;;;11.00;60.10;;;;;;5036924;28;20167;-35
2021/10/24 09:31:36;;;;;;;14.57;6.78;;;11.00;59.90;;;;;;5035723;28;20045;-40
2021/10/24 09:34:20;;;;;;;13.68;7.07;;;11.00;59.80;;;;;;5037101;28;20034;-40
2021/10/24 09:36:52;;;;;;;14.70;7.75;;;11.00;59.90;;;;;;5036338;28;20095;-41
2021/10/24 09:39:18;;;;;;;17.13;7.80;;;11.00;59.80;;;;;;5036958;28;20033;-40
2021/10/24 09:41:44;;;;;;;11.02;6.50;;;11.00;59.70;;;;;;5036175;28;20422;-33
2021/10/24 09:44:12;;;;;;;11.32;6.72;;;11.00;59.70;;;;;;5036824;28;20124;-39
2021/10/24 09:46:56;;;;;;;13.48;6.88;;;11.00;60.00;;;;;;5036093;28;20026;-40
2021/10/24 09:49:25;;;;;;;18.15;7.70;;;11.00;59.60;;;;;;5036586;28;20030;-39
2021/10/24 09:51:55;;;;;;;20.20;8.18;;;11.10;59.60;;;;;;5036043;28;20076;-40
2021/10/24 09:54:22;;;;;;;20.17;8.27;;;11.10;59.50;;;;;;5035805;28;20042;-40
2021/10/24 09:56:49;;;;;;;12.20;6.43;;;11.10;59.40;;;;;;5035982;28;20017;-40
2021/10/24 09:59:17;;;;;;;12.10;6.72;;;11.10;59.40;;;;;;5036406;28;20433;-34
2021/10/24 10:01:44;;;;;;;14.05;6.57;;;11.10;59.30;;;;;;5036300;28;20025;-34
2021/10/24 10:04:11;;;;;;;24.52;14.13;;;11.20;59.10;;;;;;5036171;28;20040;-40
2021/10/24 10:06:38;;;;;;;12.00;7.13;;;11.20;58.90;;;;;;5035878;28;20029;-39
2021/10/24 10:09:03;;;;;;;11.85;6.22;;;11.20;58.80;;;;;;5035013;28;20034;-33
2021/10/24 10:11:31;;;;;;;17.20;7.43;;;11.10;58.60;;;;;;5035990;28;20037;-40
2021/10/24 10:14:02;;;;;;;13.10;6.50;;;11.10;58.60;;;;;;5036030;28;20041;-33
2021/10/24 10:16:35;;;;;;;11.50;5.65;;;11.10;58.70;;;;;;5035569;28;20032;-40
2021/10/24 10:19:03;;;;;;;12.00;5.95;;;11.00;58.70;;;;;;5036235;28;20048;-40
2021/10/24 10:21:31;;;;;;;11.07;5.93;;;11.00;58.90;;;;;;5035778;28;20044;-40
2021/10/24 10:23:58;;;;;;;11.63;4.63;;;10.90;59.30;;;;;;5035971;28;20025;-40
2021/10/24 10:26:36;;;;;;;6.57;3.47;;;10.90;59.90;;;;;;5034878;28;20044;-33
2021/10/24 10:29:04;;;;;;;7.45;3.83;;;10.80;59.90;;;;;;5035833;28;20037;-33
2021/10/24 10:31:30;;;;;;;8.95;3.92;;;10.70;60.20;;;;;;5035458;28;20033;-33
2021/10/24 10:34:05;;;;;;;6.63;3.10;;;10.60;60.40;;;;;;5035502;28;20045;-35
2021/10/24 10:36:48;;;;;;;5.55;3.70;;;10.50;60.80;;;;;;5035056;28;20414;-34
2021/10/24 10:39:33;;;;;;;15.23;6.72;;;10.50;61.30;;;;;;5035755;28;20036;-39
2021/10/24 10:42:23;;;;;;;7.28;4.57;;;10.40;61.90;;;;;;5035351;28;20037;-34
2021/10/24 10:45:16;;;;;;;6.32;3.05;;;10.40;61.90;;;;;;5035462;28;20053;-41
2021/10/24 10:47:52;;;;;;;7.50;3.25;;;10.40;62.30;;;;;;5035370;28;20029;-40
2021/10/24 10:50:46;;;;;;;5.35;3.25;;;10.40;62.60;;;;;;5035966;28;20041;-34
2021/10/24 10:53:30;;;;;;;5.18;3.15;;;10.40;62.10;;;;;;5035165;28;20091;-33
2021/10/24 10:55:55;;;;;;;6.30;3.50;;;10.40;62.10;;;;;;5035092;28;20089;-34
2021/10/24 10:58:31;;;;;;;9.45;4.00;;;10.40;62.30;;;;;;5035499;28;20032;-40
2021/10/24 11:00:58;;;;;;;8.30;4.13;;;10.50;62.20;;;;;;5035421;28;20077;-41
2021/10/24 11:03:47;;;;;;;10.02;4.15;;;10.50;62.00;;;;;;5035145;28;20417;-39
2021/10/24 11:06:25;;;;;;;12.57;4.70;;;10.60;61.70;;;;;;5035494;28;20045;-40
2021/10/24 11:09:05;;;;;;;11.98;5.53;;;10.70;61.50;;;;;;5035656;28;20317;-33
2021/10/24 11:11:47;;;;;;;11.00;5.07;;;10.80;61.10;;;;;;5035351;28;20365;-40
2021/10/24 11:14:16;;;;;;;9.30;4.90;;;10.90;61.00;;;;;;5035639;28;20154;-41
2021/10/24 11:16:58;;;;;;;25.27;6.10;;;11.00;60.80;;;;;;5035083;28;20036;-35
2021/10/24 11:19:29;;;;;;;6.57;4.05;;;11.00;60.40;;;;;;5034890;28;20041;-40
2021/10/24 11:22:09;;;;;;;8.30;2.97;;;11.10;60.40;;;;;;5034969;28;20079;-40
2021/10/24 11:24:55;;;;;;;6.35;3.05;;;11.10;59.60;;;;;;5035387;28;20029;-34
2021/10/24 11:27:28;;;;;;;8.38;2.90;;;11.10;59.10;;;;;;5035161;28;20030;-34
2021/10/24 11:29:59;;;;;;;3.25;2.00;;;11.00;58.60;;;;;;5035100;28;20026;-33
2021/10/24 11:32:33;;;;;;;;;;;10.90;58.20;;;;;;5035377;28;20020;-40
2021/10/24 11:35:08;;;;;;;2.75;1.95;;;10.80;58.10;;;;;;5035409;28;19917;-33
2021/10/24 11:37:40;;;;;;;5.45;1.80;;;10.70;57.80;;;;;;5036431;28;20018;-40
2021/10/24 11:40:23;;;;;;;8.18;2.47;;;10.70;57.60;;;;;;5039027;28;20104;-33
2021/10/24 11:42:59;;;;;;;5.82;1.95;;;10.70;57.60;;;;;;5049825;28;20052;-33
2021/10/24 11:45:26;;;;;;;9.57;2.72;;;10.60;57.50;;;;;;5039171;28;20041;-40
2021/10/24 11:48:10;;;;;;;7.28;2.25;;;10.60;57.30;;;;;;5038658;28;20057;-39
2021/10/24 11:50:48;;;;;;;5.20;2.55;;;10.70;57.20;;;;;;5039284;28;20041;-40
2021/10/24 11:53:31;;;;;;;6.20;2.65;;;10.70;57.30;;;;;;5038418;28;20037;-40
2021/10/24 11:55:59;;;;;;;8.43;3.20;;;10.70;57.20;;;;;;5038186;28;20072;-40
2021/10/24 12:01:10;;;;;;;4.10;2.42;;;10.80;57.00;;;;;;5039226;28;20647;-34
2021/10/24 12:03:39;;;;;;;10.35;3.47;;;10.80;56.90;;;;;;5038517;28;20065;-34
2021/10/24 12:06:05;;;;;;;6.15;2.97;;;10.80;56.90;;;;;;5038417;28;20040;-34
2021/10/24 12:08:49;;;;;;;6.30;2.42;;;10.80;56.90;;;;;;5038440;28;20040;-35
2021/10/24 12:11:21;;;;;;;3.60;2.03;;;10.90;56.90;;;;;;5038595;28;20038;-34
2021/10/24 12:13:48;;;;;;;3.78;2.22;;;10.90;56.90;;;;;;5036693;28;20029;-34
2021/10/24 12:16:46;;;;;;;3.45;2.15;;;11.00;57.00;;;;;;5037088;28;20398;-41
2021/10/24 12:19:14;;;;;;;4.55;2.20;;;11.00;57.00;;;;;;5037162;28;20049;-34
2021/10/24 12:21:40;;;;;;;3.95;2.10;;;11.00;57.10;;;;;;5037745;28;20330;-40
2021/10/24 12:24:20;;;;;;;3.75;2.33;;;11.10;57.10;;;;;;5038345;28;20033;-39
2021/10/24 12:26:46;;;;;;;3.65;2.50;;;11.10;57.10;;;;;;5037817;28;20038;-34
2021/10/24 12:29:17;;;;;;;3.47;2.28;;;11.10;57.10;;;;;;5037153;28;20366;-34
2021/10/24 12:31:44;;;;;;;4.45;2.95;;;11.10;56.80;;;;;;5038071;28;20421;-39
2021/10/24 12:34:12;;;;;;;3.78;2.40;;;11.10;56.90;;;;;;5038204;28;20084;-39
2021/10/24 12:36:39;;;;;;;3.28;2.22;;;11.10;56.90;;;;;;5037456;28;20116;-40
2021/10/24 12:39:23;;;;;;;3.17;2.10;;;11.10;57.10;;;;;;5037841;28;20132;-39
2021/10/24 12:41:49;;;;;;;4.50;2.90;;;11.10;57.40;;;;;;5057607;28;20373;-38
2021/10/24 12:44:24;;;;;;;6.20;3.00;;;11.00;57.90;;;;;;5057602;28;20029;-40
2021/10/24 12:46:53;;;;;;;5.30;3.10;;;11.00;58.40;;;;;;5057366;28;20032;-40
2021/10/24 12:49:18;;;;;;;6.22;3.25;;;10.90;58.80;;;;;;5056965;28;20031;-40
2021/10/24 12:51:48;;;;;;;7.40;3.17;;;10.80;59.10;;;;;;5048163;28;20469;-33
2021/10/24 12:54:30;;;;;;;7.35;3.30;;;10.80;59.40;;;;;;5067195;28;20045;-33